createdAt,value
2018-04-02T00:00:24.535Z,90.15
2018-04-02T00:02:50.286Z,90.47
2018-04-02T00:05:16.041Z,90.63
2018-04-02T00:07:41.781Z,90.63
2018-04-02T00:10:07.538Z,91.03
2018-04-02T00:12:33.282Z,91.14
2018-04-02T00:14:59.053Z,91.36
2018-04-02T00:17:24.795Z,90.64
2018-04-02T00:19:50.533Z,91.79
2018-04-02T00:22:16.293Z,91.94
2018-04-02T00:24:42.029Z,92.07
2018-04-02T00:27:07.766Z,92.23
2018-04-02T00:29:33.509Z,92.86
2018-04-02T00:31:59.253Z,92.60
2018-04-02T00:34:24.989Z,93.07
2018-04-02T00:36:50.746Z,93.24
2018-04-02T00:39:16.485Z,93.29
2018-04-02T00:41:42.238Z,93.46
2018-04-02T00:44:07.999Z,93.45
2018-04-02T00:46:33.746Z,93.68
2018-04-02T00:48:59.494Z,94.14
2018-04-02T00:51:25.268Z,94.35
2018-04-02T00:53:50.998Z,94.43
2018-04-02T00:56:16.732Z,94.74
2018-04-02T00:58:42.466Z,94.95
2018-04-02T01:01:08.657Z,95.20
2018-04-02T01:03:34.435Z,95.26
2018-04-02T01:06:00.194Z,95.35
2018-04-02T01:08:25.926Z,95.71
2018-04-02T01:10:52.092Z,95.83
2018-04-02T01:13:17.845Z,96.03
2018-04-02T01:15:43.578Z,96.06
2018-04-02T01:18:11.453Z,96.18
2018-04-02T01:20:38.029Z,96.23
2018-04-02T01:23:03.833Z,96.30
2018-04-02T01:25:29.585Z,96.43
2018-04-02T01:27:55.345Z,96.65
2018-04-02T01:30:21.088Z,96.78
2018-04-02T01:32:46.838Z,96.78
2018-04-02T01:35:12.569Z,96.73
2018-04-02T01:37:38.314Z,96.80
2018-04-02T01:40:04.064Z,96.90
2018-04-02T01:42:29.806Z,96.99
2018-04-02T01:44:55.558Z,96.73
2018-04-02T01:47:21.311Z,97.04
2018-04-02T01:49:47.045Z,97.17
2018-04-02T01:52:12.795Z,97.29
2018-04-02T01:54:38.514Z,95.86
2018-04-02T01:57:04.237Z,96.27
2018-04-02T01:59:29.982Z,96.81
2018-04-02T02:01:55.718Z,96.84
2018-04-02T02:04:21.466Z,97.22
2018-04-02T02:06:47.213Z,97.08
2018-04-02T02:09:12.954Z,97.12
2018-04-02T02:11:38.673Z,97.45
2018-04-02T02:14:04.412Z,97.42
2018-04-02T02:16:30.167Z,97.27
2018-04-02T02:18:55.902Z,97.36
2018-04-02T02:21:21.638Z,97.53
2018-04-02T02:23:47.386Z,97.08
2018-04-02T02:26:13.125Z,97.54
2018-04-02T02:28:38.879Z,95.96
2018-04-02T02:31:04.626Z,94.51
2018-04-02T02:33:30.356Z,95.79
2018-04-02T02:35:56.079Z,96.23
2018-04-02T02:38:21.826Z,96.81
2018-04-02T02:40:54.633Z,96.81
2018-04-02T02:43:20.376Z,95.92
2018-04-02T02:45:46.113Z,96.89
2018-04-02T02:48:11.852Z,96.79
2018-04-02T02:50:37.591Z,97.10
2018-04-02T02:53:03.334Z,96.82
2018-04-02T02:55:29.087Z,96.90
2018-04-02T02:57:54.834Z,98.04
2018-04-02T03:00:20.579Z,97.24
2018-04-02T03:02:46.338Z,97.18
2018-04-02T03:05:12.089Z,97.04
2018-04-02T03:07:37.873Z,97.70
2018-04-02T03:10:03.586Z,97.91
2018-04-02T03:12:29.330Z,96.01
2018-04-02T03:14:55.075Z,96.32
2018-04-02T03:17:20.801Z,95.88
2018-04-02T03:19:46.586Z,97.05
2018-04-02T03:22:12.294Z,96.24
2018-04-02T03:24:38.038Z,95.97
2018-04-02T03:27:03.769Z,96.11
2018-04-02T03:29:29.507Z,95.74
2018-04-02T03:31:55.246Z,97.38
2018-04-02T03:34:20.985Z,97.21
2018-04-02T03:36:46.727Z,95.53
2018-04-02T03:39:12.477Z,94.14
2018-04-02T03:41:38.215Z,95.59
2018-04-02T03:44:03.943Z,95.44
2018-04-02T03:46:29.673Z,95.27
2018-04-02T03:48:55.410Z,94.34
2018-04-02T03:51:21.177Z,93.69
2018-04-02T03:53:46.910Z,94.17
2018-04-02T03:56:12.646Z,93.65
2018-04-02T03:58:38.395Z,94.63
2018-04-02T04:01:04.146Z,95.89
2018-04-02T04:03:29.878Z,97.03
2018-04-02T04:05:55.627Z,96.96
2018-04-02T04:08:28.509Z,96.24
2018-04-02T04:10:54.254Z,96.67
2018-04-02T04:13:19.983Z,96.12
2018-04-02T04:15:45.733Z,95.79
2018-04-02T04:18:11.470Z,96.27
2018-04-02T04:20:37.210Z,95.98
2018-04-02T04:23:02.945Z,95.02
2018-04-02T04:25:28.662Z,96.26
2018-04-02T04:27:54.424Z,96.98
2018-04-02T04:30:20.162Z,97.17
2018-04-02T04:32:45.907Z,97.03
2018-04-02T04:35:11.634Z,97.40
2018-04-02T04:37:37.368Z,97.06
2018-04-02T04:40:03.098Z,96.24
2018-04-02T04:42:28.833Z,95.39
2018-04-02T04:44:54.565Z,96.04
2018-04-02T04:47:20.308Z,95.15
2018-04-02T04:49:46.046Z,95.93
2018-04-02T04:52:11.791Z,95.98
2018-04-02T04:54:37.521Z,96.92
2018-04-02T04:57:03.249Z,95.36
2018-04-02T04:59:28.992Z,96.26
2018-04-02T05:01:54.734Z,96.17
2018-04-02T05:04:20.479Z,95.79
2018-04-02T05:06:46.213Z,95.98
2018-04-02T05:09:11.957Z,95.81
2018-04-02T05:11:37.685Z,95.54
2018-04-02T05:14:03.421Z,94.88
2018-04-02T05:16:29.157Z,95.97
2018-04-02T05:18:54.893Z,95.76
2018-04-02T05:21:20.638Z,95.40
2018-04-02T05:23:46.386Z,96.17
2018-04-02T05:26:12.130Z,96.04
2018-04-02T05:28:37.879Z,95.89
2018-04-02T05:31:03.621Z,95.53
2018-04-02T05:33:29.366Z,95.45
2018-04-02T05:35:55.119Z,95.71
2018-04-02T05:38:20.857Z,95.49
2018-04-02T05:40:46.574Z,95.56
2018-04-02T05:43:12.304Z,95.23
2018-04-02T05:45:38.065Z,94.48
2018-04-02T05:48:03.797Z,95.12
2018-04-02T05:50:29.534Z,95.66
2018-04-02T05:52:55.278Z,95.53
2018-04-02T05:55:21.029Z,95.53
2018-04-02T05:57:46.772Z,95.46
2018-04-02T06:00:12.533Z,95.21
2018-04-02T06:02:38.266Z,95.45
2018-04-02T06:05:04.011Z,95.17
2018-04-02T06:07:29.748Z,95.61
2018-04-02T06:09:55.479Z,96.24
2018-04-02T06:12:21.206Z,95.86
2018-04-02T06:14:46.955Z,95.41
2018-04-02T06:17:12.694Z,95.30
2018-04-02T06:19:38.424Z,96.16
2018-04-02T06:22:04.158Z,95.63
2018-04-02T06:24:29.889Z,95.75
2018-04-02T06:26:55.619Z,94.91
2018-04-02T06:29:21.379Z,94.79
2018-04-02T06:31:47.127Z,95.01
2018-04-02T06:34:12.852Z,94.65
2018-04-02T06:36:38.589Z,94.74
2018-04-02T06:39:04.322Z,94.89
2018-04-02T06:41:30.061Z,93.90
2018-04-02T06:43:55.798Z,94.29
2018-04-02T06:46:21.545Z,93.61
2018-04-02T06:48:47.286Z,93.05
2018-04-02T06:51:13.037Z,92.88
2018-04-02T06:53:38.769Z,92.20
2018-04-02T06:56:04.513Z,91.67
2018-04-02T06:58:30.257Z,91.35
2018-04-02T07:00:56.002Z,90.09
2018-04-02T07:03:21.753Z,90.02
2018-04-02T07:05:47.506Z,89.75
2018-04-02T07:08:13.234Z,88.60
2018-04-02T07:10:38.983Z,87.94
2018-04-02T07:13:04.722Z,88.75
2018-04-02T07:15:30.470Z,87.97
2018-04-02T07:17:56.206Z,88.07
2018-04-02T07:20:21.961Z,88.14
2018-04-02T07:22:47.701Z,87.97
2018-04-02T07:25:13.434Z,86.71
2018-04-02T07:27:39.186Z,86.53
2018-04-02T07:30:04.926Z,85.33
2018-04-02T07:32:30.674Z,85.14
2018-04-02T07:34:56.412Z,85.69
2018-04-02T07:37:22.178Z,84.09
2018-04-02T07:39:47.878Z,80.54
2018-04-02T07:42:13.636Z,80.28
2018-04-02T07:44:39.387Z,80.14
2018-04-02T07:47:05.134Z,80.26
2018-04-02T07:49:30.866Z,78.48
2018-04-02T07:51:56.605Z,77.03
2018-04-02T07:54:22.337Z,75.94
2018-04-02T07:56:48.082Z,76.36
2018-04-02T07:59:13.805Z,73.81
2018-04-02T08:01:39.549Z,74.83
2018-04-02T08:04:05.286Z,73.95
2018-04-02T08:06:31.050Z,74.56
2018-04-02T08:08:56.793Z,72.70
2018-04-02T08:11:22.533Z,72.11
2018-04-02T08:13:48.304Z,70.76
2018-04-02T08:16:14.045Z,69.53
2018-04-02T08:18:39.793Z,69.79
2018-04-02T08:21:05.522Z,70.07
2018-04-02T08:23:31.272Z,69.24
2018-04-02T08:25:56.993Z,69.57
2018-04-02T08:28:22.737Z,69.15
2018-04-02T08:30:48.475Z,67.42
2018-04-02T08:33:14.215Z,69.51
2018-04-02T08:35:39.950Z,69.73
2018-04-02T08:38:05.690Z,69.42
2018-04-02T08:40:31.428Z,68.23
2018-04-02T08:42:57.166Z,68.38
2018-04-02T08:45:22.902Z,68.96
2018-04-02T08:47:48.653Z,68.26
2018-04-02T08:50:14.401Z,66.43
2018-04-02T08:52:40.151Z,67.01
2018-04-02T08:55:05.878Z,67.64
2018-04-02T08:57:31.642Z,69.10
2018-04-02T08:59:57.381Z,66.33
2018-04-02T09:02:23.100Z,65.46
2018-04-02T09:04:48.853Z,66.08
2018-04-02T09:07:14.603Z,65.55
2018-04-02T09:09:40.354Z,66.67
2018-04-02T09:12:06.093Z,65.95
2018-04-02T09:14:31.845Z,65.28
2018-04-02T09:16:57.578Z,65.08
2018-04-02T09:19:23.329Z,61.97
2018-04-02T09:21:49.076Z,61.00
2018-04-02T09:24:14.821Z,59.08
2018-04-02T09:26:40.546Z,60.97
2018-04-02T09:29:06.295Z,60.89
2018-04-02T09:31:32.025Z,61.23
2018-04-02T09:33:57.760Z,61.13
2018-04-02T09:36:23.501Z,62.06
2018-04-02T09:38:49.229Z,59.28
2018-04-02T09:41:14.966Z,57.77
2018-04-02T09:43:40.697Z,57.71
2018-04-02T09:46:06.578Z,57.87
2018-04-02T09:48:32.314Z,56.21
2018-04-02T09:50:58.058Z,57.83
2018-04-02T09:53:23.782Z,56.22
2018-04-02T09:55:49.506Z,54.58
2018-04-02T09:58:15.236Z,53.52
2018-04-02T10:00:40.988Z,56.30
2018-04-02T10:03:06.730Z,55.64
2018-04-02T10:05:32.465Z,54.49
2018-04-02T10:07:58.190Z,55.93
2018-04-02T10:10:23.956Z,56.97
2018-04-02T10:12:49.650Z,58.14
2018-04-02T10:15:15.382Z,56.31
2018-04-02T10:17:41.113Z,55.37
2018-04-02T10:20:06.866Z,57.45
2018-04-02T10:22:32.606Z,58.33
2018-04-02T10:24:58.339Z,58.66
2018-04-02T10:27:24.074Z,58.60
2018-04-02T10:29:49.829Z,54.57
2018-04-02T10:32:15.542Z,55.53
2018-04-02T10:34:41.270Z,55.54
2018-04-02T10:37:06.998Z,53.25
2018-04-02T10:39:32.734Z,56.94
2018-04-02T10:41:58.795Z,54.34
2018-04-02T10:44:24.515Z,53.91
2018-04-02T10:46:50.246Z,52.41
2018-04-02T10:49:15.986Z,52.26
2018-04-02T10:51:42.800Z,53.97
2018-04-02T10:54:08.635Z,54.79
2018-04-02T10:56:34.601Z,53.13
2018-04-02T10:59:00.345Z,51.08
2018-04-02T11:01:26.084Z,51.74
2018-04-02T11:03:51.811Z,52.23
2018-04-02T11:06:17.561Z,52.67
2018-04-02T11:08:43.270Z,52.59
2018-04-02T11:11:09.010Z,54.13
2018-04-02T11:13:34.730Z,51.86
2018-04-02T11:16:00.461Z,52.56
2018-04-02T11:18:26.189Z,52.88
2018-04-02T11:20:51.936Z,52.71
2018-04-02T11:23:17.642Z,52.08
2018-04-02T11:25:43.397Z,50.49
2018-04-02T11:28:09.131Z,50.26
2018-04-02T11:30:34.857Z,51.53
2018-04-02T11:33:00.601Z,50.93
2018-04-02T11:35:26.326Z,54.72
2018-04-02T11:37:52.065Z,53.15
2018-04-02T11:40:17.804Z,50.99
2018-04-02T11:42:43.550Z,52.85
2018-04-02T11:45:09.282Z,50.25
2018-04-02T11:47:35.051Z,51.15
2018-04-02T11:50:00.824Z,51.20
2018-04-02T11:52:26.542Z,49.95
2018-04-02T11:54:52.258Z,49.27
2018-04-02T11:57:18.031Z,53.93
2018-04-02T11:59:43.730Z,52.22
2018-04-02T12:02:09.462Z,52.84
2018-04-02T12:04:35.180Z,52.60
2018-04-02T12:07:01.108Z,52.50
2018-04-02T12:09:27.235Z,52.61
2018-04-02T12:11:52.990Z,52.91
2018-04-02T12:14:18.709Z,50.96
2018-04-02T12:16:44.425Z,52.54
2018-04-02T12:19:10.379Z,50.56
2018-04-02T12:21:36.144Z,52.74
2018-04-02T12:24:01.964Z,52.52
2018-04-02T12:26:27.752Z,53.80
2018-04-02T12:28:53.481Z,54.58
2018-04-02T12:31:19.227Z,54.68
2018-04-02T12:33:44.961Z,54.38
2018-04-02T12:36:10.673Z,54.74
2018-04-02T12:38:36.413Z,53.06
2018-04-02T12:41:02.140Z,53.34
2018-04-02T12:43:27.871Z,54.08
2018-04-02T12:45:53.586Z,54.37
2018-04-02T12:48:19.321Z,52.17
2018-04-02T12:50:45.037Z,53.87
2018-04-02T12:53:10.774Z,51.17
2018-04-02T12:55:36.545Z,52.04
2018-04-02T12:58:02.274Z,50.98
2018-04-02T13:00:27.997Z,51.83
2018-04-02T13:02:53.730Z,52.75
2018-04-02T13:05:19.448Z,51.52
2018-04-02T13:07:45.204Z,50.21
2018-04-02T13:10:11.123Z,53.16
2018-04-02T13:12:36.843Z,50.94
2018-04-02T13:15:02.589Z,49.36
2018-04-02T13:17:28.303Z,50.01
2018-04-02T13:19:54.046Z,48.83
2018-04-02T13:22:19.758Z,50.93
2018-04-02T13:24:45.533Z,51.49
2018-04-02T13:27:11.219Z,51.16
2018-04-02T13:29:37.022Z,51.00
2018-04-02T13:32:02.769Z,50.33
2018-04-02T13:34:28.514Z,51.09
2018-04-02T13:36:54.240Z,51.27
2018-04-02T13:39:19.977Z,50.26
2018-04-02T13:41:45.704Z,50.44
2018-04-02T13:44:11.437Z,52.42
2018-04-02T13:46:37.161Z,46.90
2018-04-02T13:49:02.883Z,48.88
2018-04-02T13:51:28.606Z,48.16
2018-04-02T13:53:54.336Z,46.71
2018-04-02T13:56:20.058Z,47.80
2018-04-02T13:58:45.784Z,48.86
2018-04-02T14:01:11.534Z,47.29
2018-04-02T14:03:37.273Z,47.40
2018-04-02T14:06:03.022Z,48.82
2018-04-02T14:08:28.736Z,48.56
2018-04-02T14:10:54.549Z,48.16
2018-04-02T14:13:20.224Z,50.82
2018-04-02T14:15:45.954Z,50.27
2018-04-02T14:18:11.678Z,49.09
2018-04-02T14:20:37.431Z,50.08
2018-04-02T14:23:03.154Z,50.33
2018-04-02T14:25:28.882Z,50.80
2018-04-02T14:27:54.597Z,51.27
2018-04-02T14:30:20.345Z,51.14
2018-04-02T14:32:46.075Z,50.71
2018-04-02T14:35:11.804Z,50.93
2018-04-02T14:37:37.600Z,52.80
2018-04-02T14:40:03.366Z,51.84
2018-04-02T14:42:29.101Z,50.98
2018-04-02T14:44:54.822Z,51.96
2018-04-02T14:47:20.541Z,52.02
2018-04-02T14:49:46.314Z,52.15
2018-04-02T14:52:13.208Z,52.83
2018-04-02T14:54:38.971Z,51.55
2018-04-02T14:57:06.073Z,52.73
2018-04-02T14:59:31.862Z,51.81
2018-04-02T15:01:57.663Z,53.42
2018-04-02T15:04:24.540Z,52.35
2018-04-02T15:06:50.381Z,52.24
2018-04-02T15:09:16.130Z,52.43
2018-04-02T15:11:41.911Z,53.77
2018-04-02T15:14:07.652Z,53.79
2018-04-02T15:16:33.400Z,53.20
2018-04-02T15:18:59.123Z,53.26
2018-04-02T15:21:24.856Z,55.39
2018-04-02T15:23:51.792Z,52.90
2018-04-02T15:26:17.541Z,53.12
2018-04-02T15:28:43.276Z,53.65
2018-04-02T15:31:09.003Z,53.84
2018-04-02T15:33:34.726Z,53.73
2018-04-02T15:36:00.476Z,53.82
2018-04-02T15:38:26.205Z,52.07
2018-04-02T15:40:51.930Z,53.71
2018-04-02T15:43:17.678Z,53.73
2018-04-02T15:45:43.463Z,55.36
2018-04-02T15:48:09.235Z,54.45
2018-04-02T15:50:35.357Z,53.32
2018-04-02T15:53:01.138Z,53.82
2018-04-02T15:55:26.875Z,53.65
2018-04-02T15:57:52.614Z,55.43
2018-04-02T16:00:18.346Z,52.81
2018-04-02T16:02:44.115Z,52.20
2018-04-02T16:05:09.835Z,53.74
2018-04-02T16:07:35.570Z,53.79
2018-04-02T16:10:01.293Z,53.09
2018-04-02T16:12:27.025Z,53.74
2018-04-02T16:14:52.754Z,54.31
2018-04-02T16:17:22.707Z,53.34
2018-04-02T16:19:49.218Z,53.43
2018-04-02T16:22:15.064Z,54.76
2018-04-02T16:24:40.824Z,55.17
2018-04-02T16:27:06.557Z,53.44
2018-04-02T16:29:32.339Z,53.96
2018-04-02T16:31:58.069Z,54.52
2018-04-02T16:34:23.961Z,52.99
2018-04-02T16:36:49.799Z,54.35
2018-04-02T16:39:15.517Z,54.09
2018-04-02T16:41:41.276Z,52.79
2018-04-02T16:44:07.028Z,54.39
2018-04-02T16:46:32.783Z,54.35
2018-04-02T16:48:58.614Z,55.59
2018-04-02T16:51:25.869Z,55.19
2018-04-02T16:53:51.609Z,55.73
2018-04-02T16:56:17.336Z,56.41
2018-04-02T16:58:43.070Z,56.79
2018-04-02T17:01:08.781Z,56.61
2018-04-02T17:03:34.673Z,56.87
2018-04-02T17:06:00.416Z,56.19
2018-04-02T17:08:26.149Z,57.15
2018-04-02T17:10:51.869Z,58.76
2018-04-02T17:13:17.633Z,57.53
2018-04-02T17:15:43.378Z,58.45
2018-04-02T17:18:09.112Z,59.20
2018-04-02T17:20:34.826Z,60.43
2018-04-02T17:23:00.634Z,61.14
2018-04-02T17:25:26.357Z,61.46
2018-04-02T17:27:52.106Z,62.70
2018-04-02T17:30:17.825Z,62.89
2018-04-02T17:32:43.569Z,62.22
2018-04-02T17:35:09.302Z,63.44
2018-04-02T17:37:35.037Z,62.40
2018-04-02T17:40:07.815Z,62.14
2018-04-02T17:42:34.416Z,62.58
2018-04-02T17:45:01.392Z,62.85
2018-04-02T17:47:27.118Z,63.44
2018-04-02T17:49:52.845Z,63.46
2018-04-02T17:52:18.586Z,63.47
2018-04-02T17:54:44.330Z,63.96
2018-04-02T17:57:10.054Z,64.54
2018-04-02T17:59:35.822Z,64.34
2018-04-02T18:02:01.570Z,64.32
2018-04-02T18:04:27.296Z,65.32
2018-04-02T18:06:53.018Z,64.75
2018-04-02T18:09:18.745Z,64.67
2018-04-02T18:11:44.490Z,64.61
2018-04-02T18:14:10.221Z,65.13
2018-04-02T18:16:35.967Z,65.62
2018-04-02T18:19:01.707Z,65.30
2018-04-02T18:21:27.543Z,65.40
2018-04-02T18:23:53.262Z,65.78
2018-04-02T18:26:19.002Z,64.92
2018-04-02T18:28:44.726Z,65.12
2018-04-02T18:31:10.459Z,65.77
2018-04-02T18:33:36.177Z,65.86
2018-04-02T18:36:01.971Z,65.92
2018-04-02T18:38:27.632Z,65.92
2018-04-02T18:40:53.356Z,66.16
2018-04-02T18:43:19.078Z,66.51
2018-04-02T18:45:44.817Z,67.48
2018-04-02T18:48:10.538Z,67.45
2018-04-02T18:50:36.273Z,67.76
2018-04-02T18:53:02.010Z,67.27
2018-04-02T18:55:34.826Z,67.52
2018-04-02T18:58:00.553Z,67.94
2018-04-02T19:00:26.282Z,68.60
2018-04-02T19:02:52.047Z,69.00
2018-04-02T19:05:17.758Z,69.42
2018-04-02T19:07:43.485Z,69.18
2018-04-02T19:10:09.207Z,68.55
2018-04-02T19:12:34.939Z,69.71
2018-04-02T19:15:00.667Z,69.31
2018-04-02T19:17:26.401Z,70.03
2018-04-02T19:19:52.130Z,69.75
2018-04-02T19:22:17.878Z,70.35
2018-04-02T19:24:43.593Z,70.76
2018-04-02T19:27:09.318Z,71.27
2018-04-02T19:29:35.039Z,71.63
2018-04-02T19:32:00.761Z,71.74
2018-04-02T19:34:26.481Z,72.01
2018-04-02T19:36:52.238Z,71.11
2018-04-02T19:39:17.953Z,71.10
2018-04-02T19:41:43.758Z,72.00
2018-04-02T19:44:09.480Z,72.65
2018-04-02T19:46:35.209Z,73.74
2018-04-02T19:49:00.969Z,74.27
2018-04-02T19:51:26.710Z,74.72
2018-04-02T19:53:52.437Z,75.40
2018-04-02T19:56:18.178Z,76.57
2018-04-02T19:58:43.910Z,76.58
2018-04-02T20:01:09.639Z,75.83
2018-04-02T20:03:35.365Z,75.96
2018-04-02T20:06:01.107Z,75.96
2018-04-02T20:08:26.847Z,75.65
2018-04-02T20:10:52.570Z,75.75
2018-04-02T20:13:18.325Z,75.86
2018-04-02T20:15:44.054Z,76.36
2018-04-02T20:18:09.789Z,75.80
2018-04-02T20:20:35.508Z,76.42
2018-04-02T20:23:01.333Z,77.11
2018-04-02T20:25:26.970Z,77.28
2018-04-02T20:27:52.697Z,78.34
2018-04-02T20:30:18.428Z,78.71
2018-04-02T20:32:44.171Z,78.21
2018-04-02T20:35:09.896Z,77.61
2018-04-02T20:37:35.617Z,77.38
2018-04-02T20:40:01.338Z,76.73
2018-04-02T20:42:27.069Z,75.97
2018-04-02T20:44:52.800Z,75.96
2018-04-02T20:47:18.583Z,76.17
2018-04-02T20:49:44.311Z,76.06
2018-04-02T20:52:10.058Z,76.78
2018-04-02T20:54:35.797Z,76.06
2018-04-02T20:57:01.523Z,76.58
2018-04-02T20:59:27.253Z,76.44
2018-04-02T21:01:52.978Z,76.21
2018-04-02T21:04:18.723Z,76.09
2018-04-02T21:06:44.453Z,76.30
2018-04-02T21:09:10.197Z,76.19
2018-04-02T21:11:35.942Z,76.01
2018-04-02T21:14:01.682Z,76.63
2018-04-02T21:16:27.406Z,76.43
2018-04-02T21:18:53.156Z,76.25
2018-04-02T21:21:18.891Z,76.22
2018-04-02T21:23:44.628Z,76.44
2018-04-02T21:26:10.358Z,75.87
2018-04-02T21:28:36.099Z,75.61
2018-04-02T21:31:01.829Z,75.47
2018-04-02T21:33:27.555Z,75.93
2018-04-02T21:35:53.290Z,76.00
2018-04-02T21:38:19.006Z,75.89
2018-04-02T21:40:44.888Z,76.34
2018-04-02T21:43:10.809Z,76.59
2018-04-02T21:45:36.555Z,77.04
2018-04-02T21:48:02.301Z,77.95
2018-04-02T21:50:28.062Z,77.66
2018-04-02T21:52:53.796Z,78.33
2018-04-02T21:55:19.751Z,77.96
2018-04-02T21:57:45.474Z,77.66
2018-04-02T22:00:11.491Z,77.99
2018-04-02T22:02:37.479Z,77.99
2018-04-02T22:05:03.282Z,78.07
2018-04-02T22:07:30.830Z,78.54
2018-04-02T22:09:56.557Z,78.57
2018-04-02T22:12:22.461Z,78.94
2018-04-02T22:14:48.237Z,79.59
2018-04-02T22:17:13.969Z,79.70
2018-04-02T22:19:39.696Z,80.07
2018-04-02T22:22:05.425Z,79.46
2018-04-02T22:24:31.349Z,79.98
2018-04-02T22:26:57.404Z,80.22
2018-04-02T22:29:23.162Z,80.07
2018-04-02T22:31:48.988Z,79.90
2018-04-02T22:34:14.838Z,80.42
2018-04-02T22:36:40.829Z,80.27
2018-04-02T22:39:06.665Z,80.46
2018-04-02T22:41:32.436Z,80.63
2018-04-02T22:43:58.263Z,80.53
2018-04-02T22:46:24.120Z,81.35
2018-04-02T22:48:50.029Z,81.32
2018-04-02T22:51:16.024Z,81.87
2018-04-02T22:53:41.912Z,81.72
2018-04-02T22:56:07.767Z,82.92
2018-04-02T22:58:33.630Z,83.66
2018-04-02T23:00:59.489Z,84.69
2018-04-02T23:03:25.422Z,85.31
2018-04-02T23:05:51.161Z,85.33
2018-04-02T23:08:17.114Z,86.42
2018-04-02T23:10:42.968Z,87.22
2018-04-02T23:13:08.735Z,86.48
2018-04-02T23:15:34.743Z,86.71
2018-04-02T23:18:00.465Z,87.74
2018-04-02T23:20:26.203Z,87.66
2018-04-02T23:22:51.938Z,88.11
2018-04-02T23:25:17.734Z,88.25
2018-04-02T23:27:43.769Z,88.19
2018-04-02T23:30:09.597Z,88.51
2018-04-02T23:32:35.511Z,88.00
2018-04-02T23:35:01.228Z,88.96
2018-04-02T23:37:26.987Z,88.40
2018-04-02T23:39:52.733Z,88.21
2018-04-02T23:42:18.592Z,88.33
2018-04-02T23:44:44.353Z,87.89
2018-04-02T23:47:10.105Z,88.00
2018-04-02T23:49:35.996Z,88.05
2018-04-02T23:52:01.760Z,88.67
2018-04-02T23:54:27.498Z,89.33
2018-04-02T23:56:53.233Z,89.42
2018-04-02T23:59:18.986Z,89.35
